Columbus, OH

12:12 PM EST on March 04, 2015 (GMT -0500)
Port Columbus International | Change Station
CLOSE
Current Station
Airport
Location: Columbus,
Elevation: 814 ft
Nearby Weather Stations
Active Advisory: Winter Weather Advisory Active Notice: Public Information Statement

Elev 814 ft 39.99 °N, 82.88 °W | Updated 21 minutes ago

Overcast
Overcast
35 °F
Feels Like 30 °F
N
6
Wind Variable Wind from NNW

Today
High -- | Low -- °F
--% Chance of Precip.
Yesterday
High -- | Low -- °F
Precip. -- in
7:01 AM 6:26 PM
Waxing Gibbous, 99% visible
Pressure 29.98 in
Visibility 5.0 miles
Clouds Few 1400 ft
Mostly Cloudy 2400 ft
Windchill 30 °F
Dew Point 30 °F
Humidity 82%
Rainfall 0.99 in
Snow Depth Not available.
UV 3 out of 12
Pollen .60 out of 12
Air Quality Not available.
Flu Activity Not available.
METAR KCMH 041651Z 33005KT 5SM HZ FEW014 BKN024 02/M01 A2996 RMK AO2 SLP150 T00171011

More Conditions Fewer Conditions

Pressure 29.98 in
Visibility 5.0 miles
Clouds Few 1400 ft
Mostly Cloudy 2400 ft
Windchill 30 °F
Dew Point 30 °F
Humidity 82%
Rainfall 0.99 in
Snow Depth Not available.
UV 3 out of 12
Pollen .60 out of 12
Air Quality Not available.
Flu Activity Not available.
METAR KCMH 041651Z 33005KT 5SM HZ FEW014 BKN024 02/M01 A2996 RMK AO2 SLP150 T00171011

More Conditions Fewer Conditions

10-Day Weather Forecast

Almanac

Astronomy

Mar. 04, 2015 Rise Set
Actual Time
Civil Twilight
Nautical Twilight
Astronomical Twilight
Moon
Length of Visible Light
Length of Day
Tomorrow will be .
, % of the Moon is Illuminated

Today's Extremes

State Highs State Lows

Community

WunderPhotos

Upload Photos

1,802,512 photos uploaded!

WunderBlogs® & News

Nearby

Air Quality

  Air Quality AQ Index Pollutant
Not available.

Snow Depth

Station Depth Elevation

Earthquake Activity

City Distance Mag. Time & Date
Minimum magnitude displayed is 2.5.

Coastal Water Temperatures

Place Temperature

Nearby Weather Stations

Winter Weather Advisory
Statement as of 11:26 AM EST on March 04, 2015

... Winter Weather Advisory remains in effect until 1 PM EST
Thursday...

* hazard types... snow.

* Accumulations... snow accumulation 1 to 3 inches.

* Timing... snow mixed with sleet will transition to snow early
this afternoon. The snow will then increase in intensity late
this afternoon into this evening. The snow will remain across
the area tonight before diminishing Thursday morning.

* Impacts... travel difficulties are expected due to reduced
visibilities and snow accumulations.

Precautionary/preparedness actions...

Remember... a Winter Weather Advisory for snow means that periods
of snow will cause primarily travel difficulties. Be prepared for
snow covered roads and limited visibilities... and use caution
while driving. Stay tuned to NOAA Weather Radio or your favorite
source of information for the latest updates. Additional details
can also be found at www.Weather.Gov/iln... as well as on our
facebook and twitter pages.